Time;durP1;ratioP1;P1;durP2;ratioP2;P2;SDS_P1;SDS_P2;PMS_P1;PMS_P2;Temp;Humidity;BMP_temperature;BMP_pressure;BME280_temperature;BME280_humidity;BME280_pressure;Samples;Min_cycle;Max_cycle;Signal;HPM_P1;HPM_P2
2021/09/15 00:02:23;;;;;;;13.90;9.07;;;20.70;96.00;;;19.07;100.00;100116.56;5088767;28;20086;-72
2021/09/15 00:04:51;;;;;;;14.45;9.07;;;20.70;96.30;;;19.06;100.00;100111.34;5070477;28;20147;-72
2021/09/15 00:07:18;;;;;;;12.32;9.02;;;20.70;96.20;;;19.05;100.00;100104.97;5088755;28;20135;-71
2021/09/15 00:09:45;;;;;;;13.88;8.88;;;20.70;96.10;;;19.06;100.00;100109.41;5088820;28;20043;-71
2021/09/15 00:12:13;;;;;;;12.32;9.20;;;20.70;96.30;;;19.06;100.00;100109.41;5068893;28;20062;-71
2021/09/15 00:14:40;;;;;;;12.43;9.25;;;20.70;96.40;;;19.06;100.00;100103.91;5081099;28;20093;-72
2021/09/15 00:17:09;;;;;;;14.88;9.40;;;20.70;96.30;;;19.02;100.00;100099.09;5082172;28;20044;-71
2021/09/15 00:19:36;;;;;;;15.00;9.50;;;20.70;96.20;;;18.99;100.00;100094.13;5066640;28;20079;-72
2021/09/15 00:22:04;;;;;;;11.02;9.10;;;20.60;96.30;;;18.99;100.00;100094.94;5067495;28;20040;-72
2021/09/15 00:24:31;;;;;;;13.88;9.85;;;20.70;96.40;;;18.94;100.00;100098.47;5067412;28;20496;-71
2021/09/15 00:26:59;;;;;;;16.40;9.95;;;20.70;96.50;;;18.92;100.00;100097.03;5067859;28;20076;-72
2021/09/15 00:29:26;;;;;;;12.45;9.20;;;20.60;96.50;;;18.90;100.00;100096.44;5065666;28;20055;-72
2021/09/15 00:31:54;;;;;;;11.25;9.27;;;20.60;96.50;;;18.90;100.00;100090.94;5049567;28;20658;-71
2021/09/15 00:34:27;;;;;;;12.23;8.80;;;20.60;96.50;;;18.90;100.00;100089.00;5049630;28;20071;-71
2021/09/15 00:36:54;;;;;;;12.68;8.85;;;20.60;96.50;;;18.91;100.00;100092.63;5001827;28;20242;-72
2021/09/15 00:39:22;;;;;;;12.20;8.82;;;20.50;96.60;;;18.92;100.00;100083.22;5049732;28;20144;-71
2021/09/15 00:41:49;;;;;;;15.63;9.45;;;20.50;96.60;;;18.93;100.00;100085.75;5049450;28;20073;-72
2021/09/15 00:44:17;;;;;;;11.05;8.18;;;20.50;96.60;;;18.92;100.00;100072.22;5049621;28;20131;-72
2021/09/15 00:46:45;;;;;;;11.98;9.02;;;20.50;96.70;;;18.92;100.00;100077.72;5066445;28;20072;-71
2021/09/15 00:49:13;;;;;;;13.10;9.05;;;20.50;96.80;;;18.93;100.00;100073.91;5067689;28;20051;-71
2021/09/15 00:51:44;;;;;;;12.18;8.77;;;20.50;96.90;;;18.91;100.00;100076.06;5067497;28;20123;-72
2021/09/15 00:54:15;;;;;;;12.88;9.13;;;20.50;97.00;;;18.92;100.00;100074.97;5049639;28;20114;-72
2021/09/15 00:56:45;;;;;;;12.40;8.95;;;20.50;97.00;;;18.89;100.00;100067.22;5067539;28;20045;-72
2021/09/15 00:59:15;;;;;;;11.82;8.13;;;20.50;97.10;;;18.92;100.00;100066.69;5067422;28;20415;-72
2021/09/15 01:01:42;;;;;;;12.25;8.90;;;20.50;97.10;;;18.91;100.00;100071.38;5065771;28;20049;-71
2021/09/15 01:04:11;;;;;;;11.90;9.18;;;20.50;97.10;;;18.90;100.00;100064.19;5049059;28;20103;-72
2021/09/15 01:06:45;;;;;;;14.60;8.98;;;20.50;97.20;;;18.91;100.00;100063.09;5067503;28;20060;-71
2021/09/15 01:09:15;;;;;;;12.88;8.85;;;20.50;97.20;;;18.93;100.00;100062.88;5066059;28;20504;-71
2021/09/15 01:11:43;;;;;;;13.02;9.38;;;20.40;97.10;;;18.94;100.00;100064.50;5066772;28;20420;-71
2021/09/15 01:14:19;;;;;;;14.07;9.15;;;20.50;97.30;;;18.94;100.00;100064.50;5049511;28;20105;-72
2021/09/15 01:17:08;;;;;;;13.55;9.52;;;20.50;97.40;;;18.95;100.00;100057.94;5045831;28;20057;-72
2021/09/15 01:20:12;;;;;;;14.25;8.30;;;20.50;97.60;;;18.87;100.00;100047.31;5025033;28;20049;-72
2021/09/15 01:22:46;;;;;;;12.82;8.75;;;20.50;97.50;;;18.88;100.00;100051.75;5061004;28;20067;-72
2021/09/15 01:25:43;;;;;;;13.35;9.18;;;20.50;97.60;;;18.87;100.00;100039.06;5045357;28;20052;-72
2021/09/15 01:28:29;;;;;;;13.93;9.82;;;20.40;97.60;;;18.91;100.00;100059.53;5067807;28;20075;-71
2021/09/15 01:31:04;;;;;;;12.93;9.32;;;20.50;98.10;;;18.90;100.00;100055.06;5049123;28;20048;-71
2021/09/15 01:33:31;;;;;;;13.05;9.02;;;20.50;97.80;;;18.91;100.00;100051.25;5049366;28;20052;-71
2021/09/15 01:35:58;;;;;;;12.15;8.98;;;20.50;97.70;;;18.91;100.00;100042.97;5067113;28;20048;-71
2021/09/15 01:38:27;;;;;;;13.07;9.20;;;20.50;97.70;;;18.93;100.00;100052.66;5069366;28;20143;-71
2021/09/15 01:40:58;;;;;;;11.73;8.93;;;20.50;97.70;;;18.90;100.00;100049.56;5052562;28;20049;-72
2021/09/15 01:43:26;;;;;;;13.50;9.18;;;20.50;97.70;;;18.92;100.00;100042.72;5052754;28;20052;-71
2021/09/15 01:45:53;;;;;;;11.25;9.10;;;20.50;97.70;;;18.92;100.00;100039.97;5052896;28;20135;-72
2021/09/15 01:48:23;;;;;;;11.68;8.82;;;20.50;97.80;;;18.93;100.00;100040.81;5069554;28;20070;-72
2021/09/15 01:50:51;;;;;;;15.07;9.82;;;20.50;97.90;;;18.93;100.00;100029.78;5061542;28;20880;-72
2021/09/15 01:53:19;;;;;;;14.20;9.18;;;20.50;97.90;;;18.95;100.00;100033.09;5052820;28;20098;-71
2021/09/15 01:55:48;;;;;;;12.30;8.90;;;20.50;97.90;;;18.92;100.00;100022.56;5070608;28;20088;-72
2021/09/15 01:58:33;;;;;;;11.30;8.57;;;20.50;98.00;;;18.92;100.00;100020.66;5062510;28;20677;-72
2021/09/15 02:01:23;;;;;;;15.27;9.43;;;20.40;97.90;;;18.90;100.00;100024.75;5052507;28;20052;-72
2021/09/15 02:04:09;;;;;;;11.48;8.93;;;20.50;98.10;;;18.91;100.00;100020.91;5070658;28;20051;-72
2021/09/15 02:07:02;;;;;;;13.02;8.82;;;20.40;98.00;;;18.93;100.00;100013.22;5052187;28;20056;-71
2021/09/15 02:09:48;;;;;;;10.63;8.73;;;20.50;98.30;;;18.92;100.00;100006.03;5070234;28;20055;-71
2021/09/15 02:12:24;;;;;;;12.73;9.30;;;20.40;98.30;;;18.92;100.00;100003.28;5067573;28;20512;-71
2021/09/15 02:14:52;;;;;;;16.33;10.75;;;20.40;98.10;;;18.94;100.00;100001.09;5051802;28;20048;-71
2021/09/15 02:17:19;;;;;;;12.98;9.52;;;20.40;98.60;;;18.94;100.00;99999.19;5054663;28;20123;-71
2021/09/15 02:19:51;;;;;;;11.73;9.23;;;20.50;98.40;;;18.91;100.00;99994.16;5051906;28;20040;-71
2021/09/15 02:22:45;;;;;;;12.85;9.13;;;20.50;98.50;;;18.92;100.00;99995.00;5051460;28;20450;-71
2021/09/15 02:25:26;;;;;;;13.63;8.80;;;20.50;98.40;;;18.92;100.00;100000.50;5051876;28;20226;-71
2021/09/15 02:27:55;;;;;;;11.68;8.80;;;20.40;98.30;;;18.89;100.00;100001.03;5070067;28;20389;-72
2021/09/15 02:30:38;;;;;;;10.88;8.80;;;20.50;98.60;;;18.85;100.00;99997.09;5048102;28;20044;-72
2021/09/15 02:33:12;;;;;;;11.48;9.35;;;20.40;98.30;;;18.84;100.00;99993.50;5049039;28;20045;-72
2021/09/15 02:35:57;;;;;;;12.82;9.27;;;20.40;98.60;;;18.85;100.00;99986.06;5051793;28;20048;-72
2021/09/15 02:38:47;;;;;;;13.90;9.60;;;20.40;98.70;;;18.86;100.00;99988.56;5051603;28;20091;-72
2021/09/15 02:41:33;;;;;;;11.35;8.93;;;20.40;98.70;;;18.87;100.00;99986.66;5051145;28;20045;-71
2021/09/15 02:44:08;;;;;;;11.90;9.18;;;20.40;98.80;;;18.85;100.00;99991.56;5051549;28;20554;-72
2021/09/15 02:46:54;;;;;;;11.52;8.60;;;20.40;98.60;;;18.85;100.00;99994.31;5064321;28;20431;-72
2021/09/15 02:49:47;;;;;;;13.00;9.35;;;20.40;98.70;;;18.81;100.00;99998.69;5045630;28;20064;-72
2021/09/15 02:52:30;;;;;;;13.15;9.35;;;20.40;98.70;;;18.83;100.00;99994.59;5051051;28;20052;-71
2021/09/15 02:55:28;;;;;;;13.23;9.52;;;20.40;98.80;;;18.82;100.00;99989.34;5051069;28;20053;-72
2021/09/15 02:58:08;;;;;;;10.20;8.45;;;20.40;98.80;;;18.81;100.00;99993.16;5050893;28;20079;-71
2021/09/15 03:00:47;;;;;;;12.38;9.05;;;20.40;98.80;;;18.80;100.00;99994.25;5050868;28;20079;-72
2021/09/15 03:03:24;;;;;;;11.38;8.73;;;20.40;98.80;;;18.79;100.00;99993.41;5051315;28;20073;-72
2021/09/15 03:05:59;;;;;;;12.73;9.40;;;20.40;99.10;;;18.79;100.00;99992.56;5050905;28;20044;-72
2021/09/15 03:08:45;;;;;;;14.85;10.13;;;20.40;99.20;;;18.79;100.00;99992.56;5069129;28;20206;-72
2021/09/15 03:11:12;;;;;;;12.23;9.60;;;20.30;99.30;;;18.79;100.00;99987.91;5050624;28;20782;-72
2021/09/15 03:13:40;;;;;;;14.30;10.25;;;20.30;99.20;;;18.81;100.00;99993.16;5050902;28;20072;-71
2021/09/15 03:16:10;;;;;;;12.68;9.48;;;20.30;99.40;;;18.83;100.00;99979.97;5050744;28;20052;-72
2021/09/15 03:18:37;;;;;;;12.05;9.55;;;20.40;99.90;;;18.81;100.00;99982.13;5050814;28;20041;-72
2021/09/15 03:21:05;;;;;;;15.68;11.15;;;20.30;99.50;;;18.78;100.00;99980.69;5068485;28;20523;-72
2021/09/15 03:23:33;;;;;;;13.95;9.75;;;20.40;99.50;;;18.78;100.00;99983.47;5050634;28;20428;-72
2021/09/15 03:26:01;;;;;;;22.63;10.20;;;20.40;99.50;;;18.76;100.00;99986.47;5050673;28;20044;-71
2021/09/15 03:28:29;;;;;;;12.13;9.18;;;20.30;99.50;;;18.78;100.00;99982.63;5050905;28;20059;-71
2021/09/15 03:30:57;;;;;;;13.35;9.52;;;20.30;99.60;;;18.77;100.00;99979.00;5050175;28;20048;-71
2021/09/15 03:33:25;;;;;;;13.27;9.60;;;20.30;99.60;;;18.77;100.00;99987.28;5050402;28;20067;-72
2021/09/15 03:35:53;;;;;;;11.90;10.15;;;20.40;99.80;;;18.75;100.00;99976.53;5050217;28;20060;-71
2021/09/15 03:38:20;;;;;;;12.88;9.48;;;20.30;99.60;;;18.76;100.00;99985.63;5066849;28;20107;-72
2021/09/15 03:40:48;;;;;;;13.73;9.88;;;20.40;99.80;;;18.80;100.00;99980.44;5049977;28;20056;-72
2021/09/15 03:43:16;;;;;;;11.95;9.75;;;20.30;99.90;;;18.80;100.00;99975.78;5066870;28;20054;-71
2021/09/15 03:45:43;;;;;;;13.77;9.45;;;20.40;99.80;;;18.80;100.00;99969.44;5050251;28;20183;-71
2021/09/15 03:48:11;;;;;;;12.63;10.43;;;20.30;99.90;;;18.78;100.00;99972.44;5050081;28;20187;-72
2021/09/15 03:50:40;;;;;;;13.65;10.23;;;20.40;99.90;;;18.80;100.00;99963.91;5052953;28;20125;-72
2021/09/15 03:53:07;;;;;;;14.40;10.80;;;20.30;99.90;;;18.82;100.00;99967.28;5069978;28;20093;-72
2021/09/15 03:55:34;;;;;;;12.00;9.88;;;20.40;99.90;;;18.83;100.00;99963.41;5066065;28;20051;-72
2021/09/15 03:58:03;;;;;;;12.95;10.60;;;20.40;99.90;;;18.82;100.00;99964.53;5049883;28;20053;-72
2021/09/15 04:00:31;;;;;;;17.90;10.88;;;20.40;99.90;;;18.83;100.00;99960.66;5066945;28;20415;-71
2021/09/15 04:03:02;;;;;;;14.70;11.30;;;20.40;99.90;;;18.85;100.00;99962.09;5066679;28;20139;-71
2021/09/15 04:05:32;;;;;;;17.17;10.40;;;20.40;99.90;;;18.85;100.00;99955.72;5066289;28;20131;-71
2021/09/15 04:08:01;;;;;;;13.07;10.82;;;20.40;99.90;;;18.84;100.00;99954.06;5049718;28;20044;-71
2021/09/15 04:10:28;;;;;;;14.95;10.98;;;20.40;99.90;;;18.84;100.00;99948.56;5052676;28;20047;-72
2021/09/15 04:12:57;;;;;;;13.30;10.43;;;20.40;99.90;;;18.81;100.00;99946.31;5029683;28;20069;-71
2021/09/15 04:15:27;;;;;;;15.25;10.70;;;20.40;99.90;;;18.79;100.00;99951.19;5029260;28;20066;-72
2021/09/15 04:17:55;;;;;;;12.63;10.15;;;20.40;99.90;;;18.78;100.00;99949.53;5046397;28;20867;-71
2021/09/15 04:20:24;;;;;;;12.57;10.18;;;20.40;99.90;;;18.78;100.00;99950.38;5030448;28;20068;-71
2021/09/15 04:22:52;;;;;;;11.38;9.45;;;20.30;99.90;;;18.75;100.00;99948.97;5065411;28;20579;-71
2021/09/15 04:33:37;;;;;;;13.93;10.43;;;20.40;99.90;;;18.73;100.00;99942.88;5065938;28;20125;-72
2021/09/15 04:36:05;;;;;;;12.70;9.77;;;20.40;99.90;;;18.72;100.00;99943.94;5048693;28;20544;-72
2021/09/15 04:38:33;;;;;;;13.40;9.85;;;20.40;99.90;;;18.71;100.00;99942.28;5065795;28;20103;-72
2021/09/15 04:41:03;;;;;;;13.93;10.23;;;20.30;99.90;;;18.70;100.00;99951.63;5049093;28;20463;-72
2021/09/15 04:43:31;;;;;;;15.10;9.63;;;20.30;99.90;;;18.74;100.00;99950.03;5049341;28;20071;-72
2021/09/15 04:45:59;;;;;;;12.00;8.98;;;20.30;99.90;;;18.71;100.00;99942.28;5058332;28;20048;-72
2021/09/15 04:48:27;;;;;;;12.23;9.48;;;20.30;99.90;;;18.70;100.00;99937.84;5065484;28;20037;-72
2021/09/15 04:50:54;;;;;;;13.00;10.02;;;20.30;99.90;;;18.69;100.00;99932.59;5082125;28;20123;-72
2021/09/15 04:53:22;;;;;;;14.63;10.60;;;20.30;99.90;;;18.70;100.00;99943.38;5069126;28;20067;-72
2021/09/15 04:55:49;;;;;;;12.80;9.38;;;20.30;99.90;;;18.69;100.00;99938.09;5059975;28;20528;-71
2021/09/15 04:58:18;;;;;;;13.98;9.82;;;20.30;99.90;;;18.68;100.00;99933.69;5028926;28;20053;-72
2021/09/15 05:00:49;;;;;;;12.48;9.48;;;20.20;99.90;;;18.67;100.00;99927.31;5029031;28;20053;-72
2021/09/15 05:03:17;;;;;;;12.32;9.65;;;20.30;99.90;;;18.67;100.00;99920.97;5028897;28;20056;-72
2021/09/15 05:05:44;;;;;;;11.95;9.85;;;20.30;99.90;;;18.68;100.00;99923.50;5028898;28;20085;-74
2021/09/15 05:08:19;;;;;;;13.32;10.13;;;20.30;99.90;;;18.69;100.00;99930.66;5029264;28;20049;-72
2021/09/15 05:10:47;;;;;;;13.43;9.88;;;20.30;99.90;;;18.69;100.00;99927.06;5029879;28;20045;-72
2021/09/15 05:13:19;;;;;;;13.70;10.18;;;20.30;99.90;;;18.68;100.00;99919.91;5049822;28;20075;-72
2021/09/15 05:15:47;;;;;;;15.32;10.73;;;20.30;99.90;;;18.68;100.00;99923.50;5033718;28;20044;-72
2021/09/15 05:18:15;;;;;;;14.02;9.85;;;20.30;99.90;;;18.68;100.00;99929.00;5033072;28;20060;-72
2021/09/15 05:20:42;;;;;;;13.82;10.88;;;20.30;99.90;;;18.71;100.00;99928.47;5032421;28;20045;-72
2021/09/15 05:23:10;;;;;;;12.07;10.00;;;20.30;99.90;;;18.72;100.00;99923.81;5032782;28;20056;-71
2021/09/15 05:25:38;;;;;;;13.02;9.38;;;20.30;99.90;;;18.74;100.00;99933.50;5033006;28;20048;-68
2021/09/15 05:28:07;;;;;;;13.75;11.07;;;20.30;99.90;;;18.74;100.00;99922.47;5032812;28;20067;-72
2021/09/15 05:30:40;;;;;;;12.80;10.40;;;20.30;99.90;;;18.74;100.00;99921.66;5033906;28;20132;-73
2021/09/15 05:33:08;;;;;;;13.70;11.05;;;20.30;99.90;;;18.78;100.00;99927.50;5053016;28;20053;-72
2021/09/15 05:35:36;;;;;;;15.75;10.98;;;20.30;99.90;;;18.81;100.00;99916.84;5053196;28;20518;-72
2021/09/15 05:38:05;;;;;;;15.90;11.13;;;20.40;99.90;;;18.86;100.00;99918.81;5052891;28;20048;-73
2021/09/15 05:40:39;;;;;;;14.38;11.10;;;20.30;99.90;;;18.89;100.00;99918.31;5052403;28;20059;-72
2021/09/15 05:43:08;;;;;;;15.10;11.10;;;20.40;99.90;;;18.91;100.00;99916.97;5052618;28;20049;-72
2021/09/15 05:45:35;;;;;;;19.77;12.10;;;20.40;99.90;;;18.95;100.00;99917.28;5052590;28;20044;-72
2021/09/15 05:48:04;;;;;;;14.55;12.20;;;20.40;99.90;;;18.98;100.00;99922.28;5051056;28;20065;-73
2021/09/15 05:50:32;;;;;;;21.15;12.63;;;20.40;99.90;;;19.02;100.00;99917.94;5051412;28;20049;-73
2021/09/15 05:52:59;;;;;;;17.17;12.40;;;20.50;99.90;;;19.07;100.00;99919.94;5069814;28;20531;-72
2021/09/15 05:55:27;;;;;;;13.65;11.50;;;20.50;99.90;;;19.07;100.00;99920.75;5052078;28;20587;-73
2021/09/15 05:57:56;;;;;;;16.20;11.27;;;20.60;99.90;;;19.09;100.00;99913.06;5051202;28;20086;-70
2021/09/15 06:00:24;;;;;;;17.75;11.50;;;20.60;99.90;;;19.12;100.00;99922.75;5051298;28;20543;-72
2021/09/15 06:02:51;;;;;;;15.73;12.13;;;20.60;99.90;;;19.13;100.00;99917.00;5051932;28;20044;-75
2021/09/15 06:05:39;;;;;;;18.02;12.02;;;20.60;99.90;;;19.15;100.00;99916.72;5070088;28;20075;-74
2021/09/15 06:08:07;;;;;;;18.52;11.48;;;20.60;99.90;;;19.19;100.00;99908.75;5051608;28;20057;-73
2021/09/15 06:10:35;;;;;;;18.95;11.93;;;20.60;99.90;;;19.23;100.00;99909.91;5051650;28;20055;-71
2021/09/15 06:13:02;;;;;;;15.75;11.70;;;20.70;99.90;;;19.25;100.00;99918.78;5068981;28;20051;-73
2021/09/15 06:15:30;;;;;;;16.02;11.25;;;20.70;99.90;;;19.29;100.00;99922.69;5049784;28;20530;-73
2021/09/15 06:17:58;;;;;;;16.05;11.27;;;20.70;99.90;;;19.29;100.00;99912.50;5051583;28;20049;-73
2021/09/15 06:20:34;;;;;;;17.02;10.73;;;20.70;99.90;;;19.33;100.00;99912.81;5048628;28;20535;-72
2021/09/15 06:23:25;;;;;;;15.75;10.70;;;20.70;99.90;;;19.36;100.00;99908.69;5020073;28;20512;-72
2021/09/15 06:26:00;;;;;;;15.55;9.90;;;20.70;99.90;;;19.37;100.00;99897.41;5051461;28;20390;-72
2021/09/15 06:28:29;;;;;;;16.33;11.68;;;20.80;99.90;;;19.41;100.00;99901.31;5050901;28;20032;-72
2021/09/15 06:30:58;;;;;;;14.60;10.52;;;20.80;99.90;;;19.41;100.00;99904.06;5043521;28;20136;-72
2021/09/15 06:33:25;;;;;;;19.48;10.60;;;20.80;99.90;;;19.40;100.00;99901.56;5079666;28;20063;-72
2021/09/15 06:35:54;;;;;;;14.40;9.98;;;20.80;99.90;;;19.37;100.00;99911.19;5069373;28;20115;-71
2021/09/15 06:38:21;;;;;;;17.00;11.18;;;20.80;99.90;;;19.38;100.00;99909.28;5049857;28;20055;-72
2021/09/15 06:40:50;;;;;;;13.85;11.13;;;20.80;99.90;;;19.41;100.00;99909.59;5067803;28;20117;-72
2021/09/15 06:43:18;;;;;;;15.43;10.55;;;20.80;99.90;;;19.46;100.00;99915.19;5089116;28;20124;-72
2021/09/15 06:45:45;;;;;;;16.88;11.43;;;20.80;99.90;;;19.52;100.00;99916.91;5089637;28;20070;-73
2021/09/15 06:48:13;;;;;;;13.20;10.27;;;20.90;99.90;;;19.57;100.00;99918.88;5083754;28;20049;-73
2021/09/15 06:50:41;;;;;;;14.35;10.10;;;20.90;99.90;;;19.61;100.00;99924.72;5047432;28;20522;-73
2021/09/15 06:53:09;;;;;;;14.80;10.43;;;21.00;99.90;;;19.60;100.00;99923.06;5049399;28;20063;-73
2021/09/15 06:55:37;;;;;;;12.65;9.73;;;20.90;99.90;;;19.59;100.00;99926.91;5049066;28;20041;-74
2021/09/15 06:58:06;;;;;;;13.32;9.90;;;21.00;99.90;;;19.56;100.00;99921.91;5050483;28;20063;-73
2021/09/15 07:00:43;;;;;;;14.73;10.85;;;21.00;99.90;;;19.56;100.00;99924.69;5067975;28;20036;-74
2021/09/15 07:03:11;;;;;;;14.65;9.60;;;21.00;99.90;;;19.56;100.00;99919.16;5070420;28;20044;-73
2021/09/15 07:05:38;;;;;;;15.25;10.52;;;21.00;99.90;;;19.57;100.00;99921.63;5068426;28;20048;-73
2021/09/15 07:08:07;;;;;;;15.63;10.23;;;21.00;99.90;;;19.59;100.00;99913.94;5064635;28;20048;-73
2021/09/15 07:10:37;;;;;;;14.88;9.88;;;21.00;99.90;;;19.59;100.00;99926.91;5068178;28;20160;-73
2021/09/15 07:13:05;;;;;;;17.40;9.52;;;21.00;99.90;;;19.61;100.00;99913.66;5065139;28;20071;-73
2021/09/15 07:15:33;;;;;;;11.77;8.52;;;21.00;99.90;;;19.63;100.00;99923.38;5046495;28;20122;-73
2021/09/15 07:18:00;;;;;;;14.15;9.32;;;21.00;99.90;;;19.65;100.00;99920.38;5067824;28;20052;-73
2021/09/15 07:20:28;;;;;;;13.68;9.25;;;21.00;99.90;;;19.65;100.00;99925.88;5039554;28;20048;-73
2021/09/15 07:22:55;;;;;;;15.73;9.70;;;21.00;99.90;;;19.70;100.00;99925.91;5064059;28;20781;-73
2021/09/15 07:25:22;;;;;;;13.85;8.88;;;21.00;99.90;;;19.67;100.00;99919.00;5073131;28;20044;-73
2021/09/15 07:27:50;;;;;;;16.92;9.25;;;21.00;99.90;;;19.64;100.00;99918.69;5073931;28;20091;-73
2021/09/15 07:30:19;;;;;;;15.77;10.02;;;21.00;99.90;;;19.66;100.00;99914.56;5073631;28;20044;-73
2021/09/15 07:32:47;;;;;;;14.07;10.13;;;21.00;99.90;;;19.74;100.00;99913.28;5049947;28;20060;-73
2021/09/15 07:35:14;;;;;;;15.80;9.88;;;21.10;99.90;;;19.77;100.00;99912.78;5049516;28;20036;-73
2021/09/15 07:37:43;;;;;;;16.73;10.00;;;21.10;99.90;;;19.82;100.00;99923.88;5064287;28;20040;-73
2021/09/15 07:40:14;;;;;;;13.68;9.90;;;21.10;99.90;;;19.80;100.00;99923.31;5063423;28;20055;-73
2021/09/15 07:42:41;;;;;;;;;;;21.20;99.90;;;19.84;100.00;99918.94;5055569;28;20098;-73
2021/09/15 07:45:12;;;;;;;17.85;10.57;;;21.20;99.90;;;19.89;100.00;99921.72;5049097;28;20351;-73
2021/09/15 07:47:41;;;;;;;15.40;10.10;;;21.20;99.90;;;19.99;100.00;99920.16;5056764;28;20097;-73
2021/09/15 07:50:10;;;;;;;13.20;9.95;;;21.20;99.90;;;20.06;100.00;99918.03;5061989;28;20155;-73
2021/09/15 07:52:38;;;;;;;14.88;10.30;;;21.20;99.90;;;20.10;100.00;99922.78;5048296;28;20099;-74
2021/09/15 07:55:07;;;;;;;18.90;10.65;;;21.20;99.90;;;20.17;100.00;99932.78;5076901;28;20056;-73
2021/09/15 07:57:35;;;;;;;15.98;10.65;;;21.20;99.90;;;20.14;100.00;99925.81;5064064;28;20044;-73
2021/09/15 08:00:04;;;;;;;14.85;10.88;;;21.30;99.90;;;20.12;100.00;99925.25;5055304;28;20047;-73
2021/09/15 08:02:41;;;;;;;16.00;10.88;;;21.30;99.90;;;20.08;100.00;99924.13;5070464;28;20112;-73
2021/09/15 08:05:09;;;;;;;17.08;10.95;;;21.30;99.90;;;20.02;100.00;99930.69;5032325;28;20608;-73
2021/09/15 08:07:37;;;;;;;14.70;10.52;;;21.30;99.90;;;19.98;100.00;99924.03;5040999;28;20135;-73
2021/09/15 08:10:06;;;;;;;16.45;10.65;;;21.30;99.90;;;19.93;100.00;99927.56;5050117;28;20419;-73
2021/09/15 08:12:33;;;;;;;15.23;10.00;;;21.30;99.90;;;19.90;100.00;99934.44;5058474;28;20480;-73
2021/09/15 08:15:01;;;;;;;15.52;9.73;;;21.30;99.90;;;19.94;100.00;99922.91;5074630;28;20095;-73
2021/09/15 08:17:28;;;;;;;18.23;11.00;;;21.30;99.90;;;19.99;100.00;99929.31;5076089;28;20036;-73
2021/09/15 08:20:00;;;;;;;15.50;11.05;;;21.30;99.90;;;20.02;100.00;99925.19;5052343;28;20048;-73
2021/09/15 08:22:27;;;;;;;15.45;11.07;;;21.30;99.90;;;20.03;100.00;99926.81;5060034;28;20043;-73
2021/09/15 08:24:54;;;;;;;15.02;10.73;;;21.30;99.90;;;20.04;100.00;99928.50;5072360;28;20052;-73
2021/09/15 08:27:22;;;;;;;17.10;11.25;;;21.30;99.90;;;20.04;100.00;99928.50;5061904;28;20040;-73
2021/09/15 08:29:49;;;;;;;17.00;10.88;;;21.30;99.90;;;20.06;100.00;99920.78;5063060;28;20040;-73
2021/09/15 08:32:17;;;;;;;14.60;11.05;;;21.30;99.90;;;20.14;100.00;99923.06;5065169;28;20130;-73
2021/09/15 08:34:44;;;;;;;15.35;10.80;;;21.30;99.90;;;20.30;100.00;99916.59;5066992;28;20056;-73
2021/09/15 08:37:13;;;;;;;15.57;9.82;;;21.40;99.90;;;20.37;100.00;99923.81;5067068;28;20044;-73
2021/09/15 08:39:40;;;;;;;13.50;10.18;;;21.40;99.90;;;20.36;100.00;99927.69;5064180;28;20508;-73
2021/09/15 08:42:08;;;;;;;17.95;11.00;;;21.40;99.90;;;20.31;100.00;99928.47;5048913;28;20550;-73
2021/09/15 08:44:38;;;;;;;16.50;10.13;;;21.40;99.90;;;20.24;100.00;99931.47;5048775;28;20479;-73
2021/09/15 08:47:08;;;;;;;14.23;10.63;;;21.40;99.90;;;20.16;100.00;99923.63;5066945;28;20138;-73
2021/09/15 08:49:36;;;;;;;13.27;9.90;;;21.40;99.90;;;20.09;100.00;99920.28;5065850;28;20130;-73
2021/09/15 08:52:03;;;;;;;13.95;9.63;;;21.40;99.90;;;20.05;100.00;99913.63;5066858;28;20041;-73
2021/09/15 08:54:32;;;;;;;15.18;9.35;;;21.40;99.90;;;20.05;100.00;99924.66;5049018;28;20135;-73
2021/09/15 08:56:59;;;;;;;15.95;9.05;;;21.30;99.90;;;20.04;100.00;99934.03;5066772;28;20524;-73
2021/09/15 08:59:27;;;;;;;15.10;8.85;;;21.30;99.90;;;20.01;100.00;99929.00;5066096;28;20064;-73
2021/09/15 09:02:07;;;;;;;13.73;8.75;;;21.30;99.90;;;20.00;100.00;99932.88;5066652;28;20110;-74
2021/09/15 09:04:51;;;;;;;11.77;9.00;;;21.30;99.90;;;20.01;100.00;99929.00;5048965;28;20405;-75
2021/09/15 09:07:19;;;;;;;13.20;8.73;;;21.30;99.90;;;19.99;100.00;99925.69;5066947;28;20064;-75
2021/09/15 09:09:53;;;;;;;14.85;9.40;;;21.30;99.90;;;20.00;100.00;99924.59;5064053;28;20068;-75
2021/09/15 09:12:25;;;;;;;16.55;10.00;;;21.30;99.90;;;19.99;100.00;99926.53;5066488;28;20045;-75
2021/09/15 09:14:53;;;;;;;14.25;9.07;;;21.30;99.90;;;19.99;100.00;99925.69;5066800;28;20115;-75
2021/09/15 09:17:29;;;;;;;15.25;10.23;;;21.30;99.90;;;20.02;100.00;99927.94;5048505;28;20044;-75
2021/09/15 09:20:24;;;;;;;13.07;9.65;;;21.30;99.90;;;20.05;100.00;99924.66;5064100;28;20049;-75
2021/09/15 09:23:10;;;;;;;15.82;9.98;;;21.30;99.90;;;20.05;100.00;99928.25;5065066;28;20115;-75
2021/09/15 09:25:43;;;;;;;16.30;11.00;;;21.30;99.90;;;20.11;100.00;99918.91;5066859;28;20574;-74
2021/09/15 09:28:23;;;;;;;14.48;10.05;;;21.30;99.90;;;20.10;100.00;99917.25;5065865;28;20071;-74
2021/09/15 09:30:52;;;;;;;16.75;10.43;;;21.30;99.90;;;20.13;100.00;99921.41;5046476;28;20052;-74
2021/09/15 09:33:21;;;;;;;15.70;10.23;;;21.30;99.90;;;20.08;100.00;99924.13;5032982;28;20050;-74
2021/09/15 09:35:50;;;;;;;16.88;10.13;;;21.30;99.90;;;20.06;100.00;99923.56;5066451;28;20048;-75
2021/09/15 09:38:22;;;;;;;15.57;10.52;;;21.30;99.90;;;19.99;100.00;99921.00;5065182;28;20649;-74
2021/09/15 09:41:06;;;;;;;14.82;9.93;;;21.30;99.90;;;19.95;100.00;99919.03;5066212;28;20623;-75
2021/09/15 09:43:36;;;;;;;16.38;10.05;;;21.30;99.90;;;19.90;100.00;99920.66;5066366;28;20039;-75
2021/09/15 09:46:05;;;;;;;17.98;11.05;;;21.30;99.90;;;19.82;100.00;99929.41;5066009;28;20044;-75
2021/09/15 09:48:44;;;;;;;16.50;10.20;;;21.30;99.90;;;19.81;100.00;99924.97;5064396;28;20531;-77
2021/09/15 09:51:33;;;;;;;16.00;9.93;;;21.30;99.90;;;19.90;100.00;99917.88;5066176;28;20130;-74
2021/09/15 09:54:13;;;;;;;18.70;9.73;;;21.30;99.90;;;20.06;100.00;99926.31;5066353;28;20052;-75
2021/09/15 09:56:45;;;;;;;17.97;10.20;;;21.30;99.90;;;20.27;100.00;99917.09;5066931;28;20052;-75
2021/09/15 09:59:14;;;;;;;16.48;10.13;;;21.30;99.90;;;20.44;100.00;99928.00;5066838;28;20039;-75
2021/09/15 10:01:44;;;;;;;12.52;9.10;;;21.40;99.90;;;20.46;100.00;99927.75;5069036;28;20040;-75
2021/09/15 10:04:12;;;;;;;14.90;9.15;;;21.40;99.90;;;20.48;100.00;99925.56;5070034;28;20512;-74
2021/09/15 10:06:41;;;;;;;15.52;8.75;;;21.50;99.90;;;20.63;100.00;99927.63;5070038;28;20044;-75
2021/09/15 10:09:08;;;;;;;13.77;8.68;;;21.50;99.90;;;;;;5069890;28;20033;-74
2021/09/15 10:11:38;;;;;;;14.27;8.90;;;21.50;99.90;;;20.99;100.00;99931.47;5068990;28;20512;-74
2021/09/15 10:14:10;;;;;;;12.80;8.23;;;21.60;99.90;;;21.05;100.00;99937.84;5051508;28;20413;-74
2021/09/15 10:16:45;;;;;;;12.48;7.18;;;21.70;99.90;;;21.03;100.00;99940.06;5069746;28;20852;-75
2021/09/15 10:19:19;;;;;;;15.52;6.50;;;21.70;99.90;;;20.93;100.00;99940.00;5067983;28;20123;-76
2021/09/15 10:21:58;;;;;;;9.10;6.50;;;21.70;99.90;;;20.85;100.00;99944.94;5068905;28;20519;-74
2021/09/15 10:24:52;;;;;;;11.15;5.88;;;21.70;99.90;;;20.82;100.00;99944.63;5069039;28;20641;-74
2021/09/15 10:27:22;;;;;;;11.23;5.68;;;21.80;99.90;;;20.73;100.00;99941.53;5069457;28;20048;-75
2021/09/15 10:30:11;;;;;;;8.45;5.35;;;21.80;99.90;;;20.68;100.00;99944.28;5066885;28;20118;-74